Time;durP1;ratioP1;P1;durP2;ratioP2;P2;SDS_P1;SDS_P2;PMS_P1;PMS_P2;Temp;Humidity;BMP_temperature;BMP_pressure;BME280_temperature;BME280_humidity;BME280_pressure;Samples;Min_cycle;Max_cycle;Signal;HPM_P1;HPM_P2
2021/08/13 00:01:51;;;;;;;4.17;3.77;;;24.80;59.40;;;;;;5110061;27;20199;-71
2021/08/13 00:04:24;;;;;;;4.27;3.97;;;24.90;59.40;;;;;;5112107;27;20221;-71
2021/08/13 00:07:05;;;;;;;4.23;3.87;;;24.80;59.30;;;;;;5111622;27;20211;-71
2021/08/13 00:09:34;;;;;;;4.57;4.17;;;24.80;59.30;;;;;;5124867;27;20802;-71
2021/08/13 00:12:05;;;;;;;4.80;4.37;;;24.80;59.30;;;;;;5112230;27;20200;-72
2021/08/13 00:14:35;;;;;;;4.20;3.87;;;24.80;59.30;;;;;;5130710;27;20252;-72
2021/08/13 00:17:05;;;;;;;4.40;4.10;;;24.80;59.30;;;;;;5131362;27;20676;-72
2021/08/13 00:19:36;;;;;;;4.27;3.87;;;24.80;59.30;;;;;;5130989;27;20265;-72
2021/08/13 00:22:10;;;;;;;4.67;4.27;;;24.80;59.40;;;;;;5130141;27;20215;-72
2021/08/13 00:24:41;;;;;;;4.50;4.10;;;24.70;59.20;;;;;;5129545;27;20602;-71
2021/08/13 00:27:13;;;;;;;4.27;3.97;;;24.70;59.30;;;;;;5129644;27;20191;-71
2021/08/13 00:29:45;;;;;;;4.20;3.80;;;24.80;59.30;;;;;;5130649;27;20200;-72
2021/08/13 00:32:16;;;;;;;4.50;4.10;;;24.70;59.20;;;;;;5129684;27;20195;-71
2021/08/13 00:34:44;;;;;;;3.93;3.63;;;24.70;59.30;;;;;;5110341;27;20708;-71
2021/08/13 00:37:16;;;;;;;4.23;3.93;;;24.70;59.20;;;;;;5129113;27;20187;-71
2021/08/13 00:39:46;;;;;;;4.03;3.73;;;24.70;59.20;;;;;;5130313;27;20215;-71
2021/08/13 00:42:17;;;;;;;4.10;3.70;;;24.70;59.20;;;;;;5117575;27;20671;-71
2021/08/13 00:44:46;;;;;;;4.80;4.40;;;24.70;59.20;;;;;;5112710;27;20240;-71
2021/08/13 00:47:14;;;;;;;4.20;3.90;;;24.70;59.20;;;;;;5077053;27;20817;-71
2021/08/13 00:49:42;;;;;;;4.50;4.10;;;24.70;59.20;;;;;;5095344;27;20233;-71
2021/08/13 00:52:17;;;;;;;4.47;4.07;;;24.70;59.20;;;;;;5116197;27;20652;-71
2021/08/13 00:54:54;;;;;;;4.57;4.17;;;24.70;59.20;;;;;;5129300;27;20811;-72
2021/08/13 00:57:26;;;;;;;4.40;3.97;;;24.70;59.20;;;;;;5129287;27;20199;-72
2021/08/13 00:59:59;;;;;;;4.63;4.23;;;24.70;59.20;;;;;;5112274;27;20282;-72
2021/08/13 01:02:31;;;;;;;4.60;4.20;;;24.70;59.20;;;;;;5130602;27;20196;-72
2021/08/13 01:05:06;;;;;;;4.67;4.20;;;24.70;59.20;;;;;;5128739;27;20295;-72
2021/08/13 01:07:39;;;;;;;5.00;4.60;;;24.70;59.20;;;;;;5130478;27;20198;-71
2021/08/13 01:10:10;;;;;;;4.73;4.33;;;24.60;59.10;;;;;;5129600;27;20243;-71
2021/08/13 01:13:07;;;;;;;4.37;4.00;;;24.70;59.20;;;;;;5102000;27;20221;-71
2021/08/13 01:15:57;;;;;;;4.17;3.87;;;24.60;59.20;;;;;;5130100;27;20192;-72
2021/08/13 01:18:43;;;;;;;4.53;4.13;;;24.60;59.20;;;;;;5115478;27;20203;-71
2021/08/13 01:21:46;;;;;;;4.60;4.20;;;24.60;59.20;;;;;;5112996;27;20251;-71
2021/08/13 01:24:25;;;;;;;4.93;4.53;;;24.60;59.20;;;;;;5128402;27;20194;-71
2021/08/13 01:27:10;;;;;;;4.77;4.37;;;24.60;59.20;;;;;;5096798;28;20265;-71
2021/08/13 01:29:55;;;;;;;4.60;4.20;;;24.60;59.20;;;;;;5093729;27;20211;-71
2021/08/13 01:32:50;;;;;;;4.87;4.47;;;24.60;59.20;;;;;;5114894;27;20220;-71
2021/08/13 01:35:32;;;;;;;4.80;4.40;;;24.60;59.20;;;;;;5106000;27;20260;-71
2021/08/13 01:38:09;;;;;;;4.83;4.43;;;24.60;59.20;;;;;;5133318;27;20797;-71
2021/08/13 01:41:02;;;;;;;5.10;4.60;;;24.50;59.20;;;;;;5115744;27;20221;-71
2021/08/13 01:43:32;;;;;;;4.57;4.17;;;24.60;59.20;;;;;;5133214;27;20191;-71
2021/08/13 01:46:06;;;;;;;4.47;4.10;;;24.60;59.20;;;;;;5117874;27;20207;-71
2021/08/13 01:48:39;;;;;;;5.00;4.60;;;24.50;59.20;;;;;;5133327;27;20183;-72
2021/08/13 01:51:08;;;;;;;4.73;4.33;;;24.60;59.20;;;;;;5115679;27;20200;-71
2021/08/13 01:53:38;;;;;;;4.50;4.17;;;24.50;59.10;;;;;;5115423;27;20202;-71
2021/08/13 01:56:11;;;;;;;4.80;4.40;;;24.50;59.20;;;;;;5132669;27;20191;-70
2021/08/13 01:58:43;;;;;;;4.80;4.40;;;24.50;59.20;;;;;;5116627;27;20214;-70
2021/08/13 02:01:14;;;;;;;4.83;4.43;;;24.50;59.20;;;;;;5113028;27;20219;-71
2021/08/13 02:03:45;;;;;;;5.63;5.13;;;24.50;59.30;;;;;;5116581;27;20208;-70
2021/08/13 02:06:17;;;;;;;4.70;4.30;;;24.50;59.20;;;;;;5100179;27;20192;-71
2021/08/13 02:08:46;;;;;;;4.93;4.37;;;24.50;59.20;;;;;;5111359;27;20246;-72
2021/08/13 02:11:20;;;;;;;4.60;4.20;;;24.50;59.20;;;;;;5110480;28;20563;-71
2021/08/13 02:13:50;;;;;;;5.03;4.60;;;24.50;59.20;;;;;;5111353;28;20226;-71
2021/08/13 02:16:36;;;;;;;4.47;4.07;;;24.40;59.20;;;;;;5094077;27;20196;-71
2021/08/13 02:19:14;;;;;;;4.83;4.43;;;24.40;59.10;;;;;;5094299;28;20196;-71
2021/08/13 02:21:49;;;;;;;4.70;4.30;;;24.40;59.10;;;;;;5111604;28;20204;-71
2021/08/13 02:24:19;;;;;;;4.77;4.37;;;24.40;59.10;;;;;;5110353;28;20204;-71
2021/08/13 02:26:49;;;;;;;5.07;4.57;;;24.40;59.20;;;;;;5111112;28;20184;-71
2021/08/13 02:29:21;;;;;;;5.93;5.33;;;24.40;59.20;;;;;;5111014;27;20223;-72
2021/08/13 02:31:51;;;;;;;4.83;4.33;;;24.40;59.20;;;;;;5110084;28;20521;-71
2021/08/13 02:34:21;;;;;;;5.00;4.50;;;24.40;59.20;;;;;;5094728;28;20844;-71
2021/08/13 02:37:43;;;;;;;5.20;4.70;;;24.40;59.20;;;;;;5111335;27;20604;-71
2021/08/13 02:40:16;;;;;;;5.73;5.23;;;24.40;59.20;;;;;;5111751;28;20589;-71
2021/08/13 02:43:09;;;;;;;5.03;4.63;;;24.40;59.20;;;;;;5108731;27;20249;-71
2021/08/13 02:45:44;;;;;;;5.37;4.87;;;24.40;59.20;;;;;;5106044;28;20200;-71
2021/08/13 02:48:17;;;;;;;5.40;4.90;;;24.40;59.20;;;;;;5105866;28;20220;-72
2021/08/13 02:50:50;;;;;;;4.37;3.97;;;24.40;59.30;;;;;;5092638;28;20223;-72
2021/08/13 02:53:41;;;;;;;5.00;4.60;;;24.40;59.20;;;;;;5092120;28;20196;-72
2021/08/13 02:56:16;;;;;;;4.93;4.53;;;24.40;59.20;;;;;;5112143;27;20200;-72
2021/08/13 02:59:07;;;;;;;4.87;4.37;;;24.40;59.20;;;;;;5110576;28;20195;-72
2021/08/13 03:01:39;;;;;;;5.20;4.80;;;24.40;59.20;;;;;;5105014;28;20596;-72
2021/08/13 03:04:11;;;;;;;4.93;4.53;;;24.30;59.20;;;;;;5098888;28;20283;-71
2021/08/13 03:06:43;;;;;;;5.10;4.70;;;24.30;59.10;;;;;;5108310;27;20200;-71
2021/08/13 03:09:15;;;;;;;5.37;4.87;;;24.30;59.20;;;;;;5111186;27;20596;-72
2021/08/13 03:11:46;;;;;;;5.00;4.50;;;24.30;59.30;;;;;;5109147;28;20192;-72
2021/08/13 03:14:18;;;;;;;5.13;4.63;;;24.40;59.20;;;;;;5111194;27;20201;-72
2021/08/13 03:16:57;;;;;;;5.67;5.17;;;24.30;59.20;;;;;;5109144;28;20196;-72
2021/08/13 03:19:31;;;;;;;5.37;4.87;;;24.30;59.20;;;;;;5111052;27;20773;-71
2021/08/13 03:22:01;;;;;;;5.40;4.90;;;24.30;59.20;;;;;;5110894;28;20846;-71
2021/08/13 03:24:34;;;;;;;5.27;4.77;;;24.30;59.10;;;;;;5111660;27;20192;-71
2021/08/13 03:27:11;;;;;;;5.67;4.83;;;24.30;59.10;;;;;;5111364;28;20271;-71
2021/08/13 03:29:38;;;;;;;4.87;4.43;;;24.30;59.10;;;;;;5093974;28;20212;-71
2021/08/13 03:32:06;;;;;;;4.93;4.53;;;24.30;59.10;;;;;;5096796;28;20196;-71
2021/08/13 03:34:36;;;;;;;5.60;4.97;;;24.30;59.10;;;;;;5111264;27;20200;-72
2021/08/13 03:37:06;;;;;;;6.00;5.10;;;24.30;59.10;;;;;;5109844;28;20194;-71
2021/08/13 03:39:37;;;;;;;5.30;4.80;;;24.30;59.10;;;;;;5107998;28;20293;-72
2021/08/13 03:42:04;;;;;;;4.97;4.47;;;24.30;59.10;;;;;;5108975;28;20212;-72
2021/08/13 03:44:32;;;;;;;4.50;4.10;;;24.30;59.10;;;;;;5110244;27;20216;-72
2021/08/13 03:47:02;;;;;;;5.47;4.87;;;24.30;59.10;;;;;;5111466;27;20212;-72
2021/08/13 03:49:34;;;;;;;5.17;4.67;;;24.30;59.10;;;;;;5110388;27;20197;-72
2021/08/13 03:52:05;;;;;;;5.33;4.83;;;24.20;59.10;;;;;;5111562;27;20227;-72
2021/08/13 03:54:38;;;;;;;5.30;4.80;;;24.30;59.20;;;;;;5109366;28;20545;-71
2021/08/13 03:57:06;;;;;;;5.20;4.70;;;24.30;59.20;;;;;;5112140;27;20731;-71
2021/08/13 03:59:38;;;;;;;5.60;5.00;;;24.30;59.20;;;;;;5119347;27;20192;-72
2021/08/13 04:02:06;;;;;;;5.37;4.87;;;24.30;59.20;;;;;;5110615;27;20626;-72
2021/08/13 04:04:39;;;;;;;5.07;4.57;;;24.20;59.10;;;;;;5109274;28;20647;-72
2021/08/13 04:07:09;;;;;;;5.20;4.70;;;24.20;59.10;;;;;;5110456;27;20669;-71
2021/08/13 04:09:41;;;;;;;5.60;5.10;;;24.20;59.10;;;;;;5123896;27;20228;-71
2021/08/13 04:12:21;;;;;;;5.13;4.60;;;24.20;59.10;;;;;;5138290;27;20203;-72
2021/08/13 04:14:52;;;;;;;4.90;4.50;;;24.30;59.10;;;;;;5132231;27;20180;-71
2021/08/13 04:17:21;;;;;;;5.17;4.70;;;24.20;59.00;;;;;;5133135;27;20211;-71
2021/08/13 04:19:58;;;;;;;5.40;4.90;;;24.20;59.10;;;;;;5114622;27;20707;-71
2021/08/13 04:22:28;;;;;;;4.60;4.20;;;24.20;59.00;;;;;;5129461;27;20213;-72
2021/08/13 04:25:00;;;;;;;4.67;4.27;;;24.20;59.00;;;;;;5129820;27;20274;-71
2021/08/13 04:27:29;;;;;;;5.23;4.73;;;24.20;59.00;;;;;;5113063;27;20191;-70
2021/08/13 04:30:00;;;;;;;5.67;5.17;;;24.20;59.00;;;;;;5130991;27;20210;-71
2021/08/13 04:32:29;;;;;;;5.10;4.60;;;24.20;59.00;;;;;;5130430;27;20238;-70
2021/08/13 04:35:13;;;;;;;5.43;4.93;;;24.20;58.90;;;;;;5131491;27;20318;-70
2021/08/13 04:37:44;;;;;;;5.80;5.30;;;24.20;59.00;;;;;;5120755;27;20263;-70
2021/08/13 04:40:19;;;;;;;5.53;5.03;;;24.20;58.90;;;;;;5136916;27;20229;-70
2021/08/13 04:42:50;;;;;;;5.70;5.20;;;24.10;58.90;;;;;;5128848;27;20620;-70
2021/08/13 04:45:21;;;;;;;5.80;4.93;;;24.20;58.90;;;;;;5131178;27;20195;-71
2021/08/13 04:47:54;;;;;;;5.73;5.23;;;24.10;58.80;;;;;;5140373;27;20184;-70
2021/08/13 04:50:38;;;;;;;5.30;4.80;;;24.10;58.80;;;;;;5111539;27;20328;-70
2021/08/13 04:53:08;;;;;;;5.00;4.60;;;24.20;58.80;;;;;;5109971;27;20886;-71
2021/08/13 04:55:40;;;;;;;5.50;5.10;;;24.10;58.80;;;;;;5111733;27;20215;-71
2021/08/13 04:58:11;;;;;;;5.23;4.83;;;24.10;58.80;;;;;;5130254;27;20675;-71
2021/08/13 05:00:39;;;;;;;5.17;4.77;;;24.10;58.70;;;;;;5126752;27;20322;-70
2021/08/13 05:03:12;;;;;;;5.10;4.70;;;24.10;58.80;;;;;;5124904;27;20201;-71
2021/08/13 05:05:47;;;;;;;5.67;5.10;;;24.10;58.70;;;;;;5128894;27;20287;-70
2021/08/13 05:08:14;;;;;;;5.47;4.97;;;24.10;58.70;;;;;;5129288;27;20195;-70
2021/08/13 05:10:45;;;;;;;5.60;5.10;;;24.10;58.70;;;;;;5110444;27;20210;-71
2021/08/13 05:13:17;;;;;;;6.00;5.40;;;24.10;58.70;;;;;;5129278;27;20211;-71
2021/08/13 05:15:50;;;;;;;5.23;4.80;;;24.10;58.70;;;;;;5130961;27;20203;-71
2021/08/13 05:18:22;;;;;;;6.03;5.53;;;24.10;58.70;;;;;;5128204;27;20217;-71
2021/08/13 05:21:00;;;;;;;5.83;5.23;;;24.10;58.70;;;;;;5130401;27;20212;-71
2021/08/13 05:23:32;;;;;;;5.73;5.23;;;24.10;58.70;;;;;;5129432;27;20319;-71
2021/08/13 05:26:03;;;;;;;5.50;5.00;;;24.10;58.70;;;;;;5129177;27;20206;-71
2021/08/13 05:28:38;;;;;;;5.37;4.87;;;24.10;58.70;;;;;;5128670;27;20215;-71
2021/08/13 05:31:07;;;;;;;5.50;5.00;;;24.10;58.70;;;;;;5122181;27;20214;-71
2021/08/13 05:33:38;;;;;;;5.47;4.97;;;24.10;58.70;;;;;;5133116;27;20190;-71
2021/08/13 05:36:08;;;;;;;5.70;5.20;;;24.10;58.60;;;;;;5110015;28;20207;-71
2021/08/13 05:38:40;;;;;;;5.37;4.87;;;24.10;58.60;;;;;;5129081;27;20205;-71
2021/08/13 05:41:10;;;;;;;5.63;5.13;;;24.10;58.60;;;;;;5111554;28;20208;-71
2021/08/13 05:43:41;;;;;;;5.40;4.90;;;24.10;58.60;;;;;;5111799;28;20200;-71
2021/08/13 05:46:11;;;;;;;5.60;5.10;;;24.10;58.60;;;;;;5128779;27;20207;-71
2021/08/13 05:48:42;;;;;;;5.87;5.33;;;24.10;58.50;;;;;;5130048;27;20199;-71
2021/08/13 05:51:14;;;;;;;5.37;4.87;;;24.10;58.60;;;;;;5130136;27;20199;-70
2021/08/13 05:53:43;;;;;;;5.33;4.83;;;24.10;58.50;;;;;;5129509;27;20202;-70
2021/08/13 05:56:11;;;;;;;4.93;4.53;;;24.10;58.50;;;;;;5128691;27;20201;-71
2021/08/13 05:58:42;;;;;;;5.23;4.73;;;24.10;58.50;;;;;;5130233;27;20599;-71
2021/08/13 06:01:14;;;;;;;5.90;5.40;;;24.10;58.50;;;;;;5128427;28;20219;-71
2021/08/13 06:03:46;;;;;;;5.03;4.63;;;24.10;58.50;;;;;;5128163;27;20192;-71
2021/08/13 06:06:17;;;;;;;5.40;4.90;;;24.10;58.50;;;;;;5119508;27;20587;-71
2021/08/13 06:08:48;;;;;;;5.60;5.10;;;24.10;58.40;;;;;;5130394;27;20782;-70
2021/08/13 06:11:18;;;;;;;5.10;4.60;;;24.10;58.50;;;;;;5128935;28;20192;-71
2021/08/13 06:14:02;;;;;;;5.80;5.30;;;24.10;58.50;;;;;;5129360;27;20283;-71
2021/08/13 06:16:33;;;;;;;5.37;4.97;;;24.10;58.50;;;;;;5129799;27;20195;-71
2021/08/13 06:19:03;;;;;;;5.87;4.83;;;24.10;58.40;;;;;;5110896;28;20236;-71
2021/08/13 06:21:34;;;;;;;5.00;4.60;;;24.10;58.40;;;;;;5117577;27;20224;-70
2021/08/13 06:24:05;;;;;;;5.70;5.20;;;24.10;58.40;;;;;;5132798;27;20204;-71
2021/08/13 06:26:32;;;;;;;5.67;5.17;;;24.10;58.40;;;;;;5131647;27;20210;-71
2021/08/13 06:29:03;;;;;;;5.50;4.97;;;24.10;58.40;;;;;;5114663;27;20222;-71
2021/08/13 06:31:32;;;;;;;5.43;4.93;;;24.10;58.40;;;;;;5131730;27;21635;-71
2021/08/13 06:34:02;;;;;;;5.23;4.73;;;24.10;58.40;;;;;;5100295;27;20199;-70
2021/08/13 06:36:33;;;;;;;5.43;4.93;;;24.10;58.40;;;;;;5132909;27;20203;-70
2021/08/13 06:39:03;;;;;;;5.27;4.80;;;24.10;58.40;;;;;;5130992;27;20207;-70
2021/08/13 06:41:34;;;;;;;4.73;4.33;;;24.10;58.40;;;;;;5133267;27;20216;-71
2021/08/13 06:44:02;;;;;;;4.73;4.33;;;24.10;58.40;;;;;;5132220;27;20592;-71
2021/08/13 06:46:33;;;;;;;4.83;4.43;;;24.10;58.40;;;;;;5134046;27;20278;-70
2021/08/13 06:49:02;;;;;;;4.87;4.47;;;24.10;58.40;;;;;;5114691;27;20196;-71
2021/08/13 06:51:34;;;;;;;5.13;4.70;;;24.10;58.40;;;;;;5129589;27;20198;-70
2021/08/13 06:54:06;;;;;;;5.70;4.77;;;24.10;58.40;;;;;;5132439;27;20264;-70
2021/08/13 06:56:36;;;;;;;4.83;4.37;;;24.10;58.40;;;;;;5117285;27;20212;-71
2021/08/13 06:59:07;;;;;;;4.83;4.43;;;24.10;58.40;;;;;;5123340;27;20206;-70
2021/08/13 07:01:39;;;;;;;5.17;4.70;;;24.10;58.40;;;;;;5131085;27;20219;-71
2021/08/13 07:04:11;;;;;;;4.13;3.83;;;24.10;58.40;;;;;;5132403;27;20195;-71
2021/08/13 07:06:38;;;;;;;4.40;4.00;;;24.10;58.40;;;;;;5137974;27;20191;-70
2021/08/13 07:09:09;;;;;;;4.87;4.47;;;24.10;58.40;;;;;;5138044;27;20803;-71
2021/08/13 07:11:38;;;;;;;4.43;4.03;;;24.10;58.40;;;;;;5127071;27;20200;-72
2021/08/13 07:14:08;;;;;;;4.70;4.30;;;24.10;58.40;;;;;;5130186;27;20199;-72
2021/08/13 07:16:39;;;;;;;4.37;3.97;;;24.10;58.40;;;;;;5132002;27;20253;-72
2021/08/13 07:19:09;;;;;;;4.40;4.03;;;24.10;58.40;;;;;;5114049;27;20211;-72
2021/08/13 07:21:38;;;;;;;6.73;4.43;;;24.10;58.40;;;;;;5131826;27;20212;-72
2021/08/13 07:24:11;;;;;;;4.67;4.27;;;24.10;58.40;;;;;;5115939;27;20528;-72
2021/08/13 07:26:41;;;;;;;4.57;4.17;;;24.10;58.40;;;;;;5131570;27;20195;-72
2021/08/13 07:29:14;;;;;;;4.13;3.83;;;24.10;58.30;;;;;;5130546;27;20192;-72
2021/08/13 07:31:44;;;;;;;4.63;4.23;;;24.10;58.40;;;;;;5107783;27;20191;-72
2021/08/13 07:34:13;;;;;;;4.30;4.00;;;24.10;58.40;;;;;;5113134;27;20220;-72
2021/08/13 07:36:44;;;;;;;4.00;3.70;;;24.10;58.40;;;;;;5129910;27;20202;-71
2021/08/13 07:39:34;;;;;;;4.43;4.10;;;24.10;58.40;;;;;;5130883;27;20215;-71
2021/08/13 07:42:05;;;;;;;4.63;4.23;;;24.10;58.40;;;;;;5113832;27;20212;-72
2021/08/13 07:44:37;;;;;;;4.80;4.10;;;24.10;58.40;;;;;;5114453;27;20204;-72
2021/08/13 07:47:13;;;;;;;4.00;3.70;;;24.10;58.40;;;;;;5114560;27;20228;-72
2021/08/13 07:49:43;;;;;;;4.27;3.87;;;24.10;58.40;;;;;;5113697;27;20192;-72
2021/08/13 07:52:16;;;;;;;3.80;3.47;;;24.20;58.40;;;;;;5113674;27;20199;-72
2021/08/13 07:54:50;;;;;;;3.87;3.57;;;24.10;58.40;;;;;;5130817;27;20208;-72
2021/08/13 07:57:22;;;;;;;4.63;3.70;;;24.20;58.40;;;;;;5114503;27;20661;-72
2021/08/13 07:59:56;;;;;;;4.07;3.67;;;24.20;58.40;;;;;;5131038;27;20212;-71
2021/08/13 08:02:28;;;;;;;3.77;3.47;;;24.20;58.40;;;;;;5130200;27;20279;-72
2021/08/13 08:04:59;;;;;;;3.90;3.60;;;24.20;58.40;;;;;;5131099;27;20580;-72
2021/08/13 08:07:30;;;;;;;4.03;3.40;;;24.10;58.40;;;;;;5133348;27;20238;-72
2021/08/13 08:09:58;;;;;;;3.93;3.53;;;24.10;58.30;;;;;;5131155;27;20719;-72
2021/08/13 08:12:29;;;;;;;4.10;3.80;;;24.10;58.40;;;;;;5130898;27;20234;-72
2021/08/13 08:15:01;;;;;;;3.70;3.40;;;24.20;58.40;;;;;;5113426;27;20195;-72
2021/08/13 08:17:32;;;;;;;3.80;3.50;;;24.20;58.40;;;;;;5130354;27;20669;-72
2021/08/13 08:20:24;;;;;;;3.60;3.30;;;24.20;58.40;;;;;;5132447;27;20762;-72
2021/08/13 08:22:52;;;;;;;3.60;3.30;;;24.20;58.40;;;;;;5138299;27;20215;-71
2021/08/13 08:25:24;;;;;;;3.50;3.20;;;24.20;58.40;;;;;;5130078;27;20267;-71
2021/08/13 08:27:56;;;;;;;3.30;3.07;;;24.20;58.40;;;;;;5111452;27;20200;-71
2021/08/13 08:30:48;;;;;;;3.33;3.10;;;24.20;58.40;;;;;;5130373;27;20616;-71
2021/08/13 08:33:23;;;;;;;3.40;3.10;;;24.20;58.40;;;;;;5125427;27;20278;-71
2021/08/13 08:36:02;;;;;;;3.50;3.20;;;24.20;58.40;;;;;;5131037;27;20197;-71
2021/08/13 08:38:34;;;;;;;3.27;3.00;;;24.20;58.40;;;;;;5136612;27;20209;-72
2021/08/13 08:41:05;;;;;;;3.60;3.30;;;24.20;58.50;;;;;;5117407;27;20219;-72
2021/08/13 08:43:34;;;;;;;3.37;3.07;;;24.20;58.40;;;;;;5096903;27;20708;-72
2021/08/13 08:46:03;;;;;;;3.37;3.07;;;24.20;58.40;;;;;;5128961;27;20184;-72
2021/08/13 08:48:40;;;;;;;3.13;2.90;;;24.20;58.50;;;;;;5117339;27;20204;-72
2021/08/13 08:51:14;;;;;;;3.17;2.87;;;24.20;58.50;;;;;;5124770;27;20236;-72
2021/08/13 08:53:58;;;;;;;3.33;3.03;;;24.30;58.60;;;;;;5128620;27;20283;-72
2021/08/13 08:56:26;;;;;;;3.07;2.80;;;24.30;58.50;;;;;;5129597;27;20183;-72
2021/08/13 08:59:02;;;;;;;3.40;3.10;;;24.30;58.60;;;;;;5110779;27;20255;-72
2021/08/13 09:01:36;;;;;;;2.70;2.50;;;24.30;58.60;;;;;;5111248;27;20207;-71
2021/08/13 09:04:09;;;;;;;3.00;2.70;;;24.30;58.50;;;;;;5110452;27;20234;-71
2021/08/13 09:06:41;;;;;;;3.07;2.77;;;24.30;58.40;;;;;;5133909;27;20558;-71
2021/08/13 09:09:10;;;;;;;3.50;3.20;;;24.30;58.50;;;;;;5110934;27;20202;-71
2021/08/13 09:11:47;;;;;;;2.87;2.67;;;24.30;58.40;;;;;;5105315;28;20199;-71
2021/08/13 09:14:19;;;;;;;3.43;3.13;;;24.30;58.40;;;;;;5128814;27;20199;-72
2021/08/13 09:17:04;;;;;;;3.10;2.87;;;24.30;58.40;;;;;;5133534;27;20242;-72
2021/08/13 09:19:48;;;;;;;3.10;2.90;;;24.30;58.50;;;;;;5120054;27;20223;-72
2021/08/13 09:22:20;;;;;;;2.77;2.57;;;24.30;58.50;;;;;;5104754;27;20231;-72
2021/08/13 09:24:55;;;;;;;3.10;2.77;;;24.30;59.10;;;;;;5104962;27;20214;-72
2021/08/13 09:27:28;;;;;;;3.23;2.90;;;24.30;58.60;;;;;;5132366;27;20203;-72
2021/08/13 09:30:15;;;;;;;3.77;2.73;;;24.40;58.70;;;;;;5118682;27;20219;-71
2021/08/13 09:33:07;;;;;;;3.70;2.50;;;24.40;58.70;;;;;;5126717;27;20203;-71
2021/08/13 09:35:42;;;;;;;4.00;3.00;;;24.40;58.70;;;;;;5086308;28;20208;-71
2021/08/13 09:38:14;;;;;;;2.90;2.60;;;24.40;58.80;;;;;;5088463;28;20650;-71
2021/08/13 09:40:46;;;;;;;3.33;2.80;;;24.40;58.80;;;;;;5083686;28;20704;-71
2021/08/13 09:43:13;;;;;;;2.50;2.30;;;24.40;58.80;;;;;;5089224;28;20658;-70
2021/08/13 09:46:23;;;;;;;3.07;2.77;;;24.40;58.80;;;;;;5089494;28;20677;-70
2021/08/13 09:49:18;;;;;;;3.07;2.63;;;24.40;58.80;;;;;;5097708;28;20232;-72
2021/08/13 09:51:48;;;;;;;3.40;2.83;;;24.40;58.80;;;;;;5087967;28;20640;-72
2021/08/13 09:54:27;;;;;;;2.80;2.60;;;24.40;58.90;;;;;;5105100;28;20215;-71
2021/08/13 09:57:07;;;;;;;3.20;2.50;;;24.40;58.90;;;;;;5095037;27;20203;-72
2021/08/13 10:00:00;;;;;;;2.93;2.63;;;24.40;58.90;;;;;;5085636;28;20764;-72
2021/08/13 10:02:38;;;;;;;3.40;2.43;;;24.50;59.00;;;;;;5088824;28;20810;-71
2021/08/13 10:05:26;;;;;;;3.50;2.57;;;24.50;59.00;;;;;;5092528;27;20196;-72
2021/08/13 10:08:00;;;;;;;2.77;2.50;;;24.50;59.00;;;;;;5103961;27;20199;-73
2021/08/13 10:10:46;;;;;;;6.23;3.17;;;24.60;59.10;;;;;;5093826;28;20243;-72
2021/08/13 10:13:18;;;;;;;6.80;2.50;;;24.60;59.20;;;;;;5094829;28;20645;-72
2021/08/13 10:16:03;;;;;;;3.00;2.70;;;24.60;59.40;;;;;;5098059;28;20597;-72
2021/08/13 10:18:35;;;;;;;6.90;2.53;;;24.60;59.30;;;;;;5095747;28;20216;-71
2021/08/13 10:21:04;;;;;;;5.10;2.80;;;24.60;59.30;;;;;;5094561;28;20472;-67
2021/08/13 10:23:34;;;;;;;6.60;2.50;;;24.70;59.80;;;;;;5085369;28;20660;-68
2021/08/13 10:26:06;;;;;;;12.17;2.90;;;24.80;61.90;;;;;;5098217;28;20783;-73
2021/08/13 10:28:37;;;;;;;4.63;2.43;;;24.80;63.20;;;;;;5095116;28;20216;-74
2021/08/13 10:31:21;;;;;;;4.53;3.00;;;24.90;63.00;;;;;;5093588;28;20748;-70
2021/08/13 10:33:54;;;;;;;6.27;3.07;;;24.90;62.30;;;;;;5087236;28;20244;-73
2021/08/13 10:36:29;;;;;;;6.33;2.50;;;25.00;62.80;;;;;;5101812;28;20697;-72
2021/08/13 10:38:59;;;;;;;4.23;2.57;;;25.00;62.60;;;;;;5091407;28;20254;-69
2021/08/13 10:41:29;;;;;;;4.87;2.70;;;25.00;62.50;;;;;;5098715;28;20222;-70
2021/08/13 10:44:12;;;;;;;8.37;3.07;;;25.10;62.80;;;;;;5093054;28;20208;-68
2021/08/13 10:46:44;;;;;;;5.17;3.10;;;25.20;62.30;;;;;;5105154;28;20212;-70
2021/08/13 10:49:20;;;;;;;4.83;2.70;;;25.20;62.20;;;;;;5086106;28;20237;-71
2021/08/13 10:52:07;;;;;;;5.03;2.67;;;25.20;62.00;;;;;;5104058;28;20197;-71
2021/08/13 10:54:45;;;;;;;6.83;2.77;;;25.30;61.90;;;;;;5087652;28;20189;-70
2021/08/13 10:57:59;;;;;;;4.17;2.77;;;25.30;61.60;;;;;;5099702;28;20223;-69
2021/08/13 11:01:06;;;;;;;9.43;3.10;;;25.30;61.10;;;;;;5093509;28;20676;-70
2021/08/13 11:03:56;;;;;;;2.53;2.30;;;25.40;60.80;;;;;;5091659;28;20243;-69
2021/08/13 11:06:43;;;;;;;7.60;3.33;;;25.40;60.90;;;;;;5080668;28;20212;-69
2021/08/13 11:09:32;;;;;;;4.43;2.90;;;25.50;61.10;;;;;;5088924;28;20204;-70
2021/08/13 11:12:12;;;;;;;6.03;3.30;;;25.50;61.20;;;;;;5108968;27;20212;-68
2021/08/13 11:14:53;;;;;;;4.83;2.90;;;25.60;61.10;;;;;;5111259;27;20188;-71
2021/08/13 11:17:42;;;;;;;4.07;2.97;;;25.60;60.60;;;;;;5093979;27;20789;-69
2021/08/13 11:20:16;;;;;;;5.00;2.87;;;25.60;60.30;;;;;;5119438;27;20783;-70
2021/08/13 11:22:59;;;;;;;3.53;2.57;;;25.70;60.20;;;;;;5073871;28;20212;-68
2021/08/13 11:25:48;;;;;;;3.70;2.80;;;25.70;59.90;;;;;;5117299;27;20199;-71
2021/08/13 11:28:30;;;;;;;3.50;3.20;;;25.70;59.70;;;;;;5092727;28;20281;-70
2021/08/13 11:31:01;;;;;;;4.33;2.97;;;25.70;59.30;;;;;;5097839;28;20197;-71
2021/08/13 11:33:35;;;;;;;7.40;2.80;;;25.70;59.30;;;;;;5106441;28;20245;-71
2021/08/13 11:36:53;;;;;;;4.10;3.00;;;25.80;59.40;;;;;;5125786;27;20224;-71
2021/08/13 11:39:41;;;;;;;5.07;3.30;;;25.80;59.10;;;;;;5121097;27;20539;-71
2021/08/13 11:42:12;;;;;;;9.40;3.83;;;25.80;58.80;;;;;;5089086;28;20228;-67
2021/08/13 11:44:47;;;;;;;10.60;3.60;;;25.80;58.90;;;;;;5110059;27;20184;-70
2021/08/13 11:47:17;;;;;;;15.43;4.90;;;25.90;59.40;;;;;;5089828;28;20239;-71
2021/08/13 11:49:48;;;;;;;8.47;3.77;;;25.90;59.00;;;;;;5071671;28;20253;-71
2021/08/13 11:52:27;;;;;;;7.07;3.87;;;25.90;58.90;;;;;;5092731;27;20262;-73
2021/08/13 11:54:56;;;;;;;7.63;4.00;;;25.90;58.90;;;;;;5108712;27;20831;-73
2021/08/13 11:57:30;;;;;;;6.50;4.40;;;25.90;58.80;;;;;;5116187;27;20681;-77
2021/08/13 11:59:59;;;;;;;8.33;4.63;;;25.90;58.70;;;;;;5111176;27;20570;-74
2021/08/13 12:02:30;;;;;;;18.93;4.97;;;25.90;59.00;;;;;;5086645;27;20316;-75
2021/08/13 12:05:09;;;;;;;9.73;4.27;;;25.90;59.40;;;;;;5108037;27;20219;-72
2021/08/13 12:07:37;;;;;;;10.23;4.17;;;26.00;59.80;;;;;;5117129;27;20203;-70
2021/08/13 12:10:20;;;;;;;13.20;5.30;;;26.00;60.30;;;;;;5095627;28;20232;-72
2021/08/13 12:12:48;;;;;;;9.77;4.00;;;26.00;60.00;;;;;;5082982;28;20875;-72
2021/08/13 12:15:35;;;;;;;10.37;4.17;;;26.00;59.90;;;;;;5082836;28;20209;-71
2021/08/13 12:18:30;;;;;;;10.70;4.80;;;25.90;59.80;;;;;;5080866;28;20204;-71
2021/08/13 12:21:04;;;;;;;7.60;4.30;;;26.00;60.10;;;;;;5088383;28;20202;-71
2021/08/13 12:23:34;;;;;;;8.37;4.40;;;26.00;60.70;;;;;;5082629;28;20540;-71
2021/08/13 12:26:03;;;;;;;9.67;4.10;;;25.90;60.00;;;;;;5066903;28;20679;-71
2021/08/13 12:28:34;;;;;;;6.90;4.03;;;26.00;60.30;;;;;;5085509;28;20209;-71
2021/08/13 12:31:09;;;;;;;5.97;4.10;;;26.00;60.20;;;;;;5085810;28;20946;-71
2021/08/13 12:33:54;;;;;;;6.20;3.77;;;25.90;60.30;;;;;;5080882;28;20228;-72
2021/08/13 12:36:45;;;;;;;5.60;4.00;;;26.00;60.30;;;;;;5090428;28;20260;-71
2021/08/13 12:39:24;;;;;;;5.40;3.80;;;26.00;60.50;;;;;;5084420;27;20240;-71
2021/08/13 12:41:54;;;;;;;8.33;4.20;;;26.00;60.40;;;;;;5066431;28;20657;-71
2021/08/13 12:44:22;;;;;;;5.87;3.70;;;25.90;60.20;;;;;;5084276;28;20197;-72
2021/08/13 12:46:55;;;;;;;3.80;3.40;;;26.00;60.20;;;;;;5068438;28;20659;-73
2021/08/13 12:49:34;;;;;;;5.50;3.83;;;26.00;60.00;;;;;;5089071;28;20206;-73
2021/08/13 12:52:24;;;;;;;6.33;4.10;;;26.00;60.20;;;;;;5085425;28;20292;-72
2021/08/13 12:55:15;;;;;;;6.90;3.93;;;26.00;60.10;;;;;;5081809;28;20209;-72
2021/08/13 12:57:46;;;;;;;4.67;4.03;;;26.00;60.10;;;;;;5079032;28;20209;-73
2021/08/13 13:00:16;;;;;;;6.10;3.53;;;26.00;60.00;;;;;;5065372;28;20645;-72
2021/08/13 13:02:50;;;;;;;5.37;3.37;;;26.00;60.10;;;;;;5081885;28;20725;-72
2021/08/13 13:05:22;;;;;;;9.50;3.60;;;26.00;60.20;;;;;;5085991;28;20196;-71
2021/08/13 13:07:58;;;;;;;5.67;3.47;;;26.00;60.10;;;;;;5085083;28;20196;-72
2021/08/13 13:10:37;;;;;;;4.10;3.20;;;26.00;60.00;;;;;;5079825;28;20319;-71
2021/08/13 13:13:11;;;;;;;3.77;3.20;;;26.00;59.80;;;;;;5080639;28;20212;-71
2021/08/13 13:15:44;;;;;;;5.37;3.43;;;26.00;59.80;;;;;;5077735;28;20244;-72
2021/08/13 13:18:25;;;;;;;4.43;3.33;;;26.00;60.10;;;;;;5086119;28;20216;-73
2021/08/13 13:20:54;;;;;;;4.77;3.30;;;26.00;59.90;;;;;;5081010;28;20205;-73
2021/08/13 13:23:43;;;;;;;4.97;3.43;;;26.00;59.90;;;;;;5089037;28;20231;-73
2021/08/13 13:26:13;;;;;;;4.70;3.37;;;26.10;59.90;;;;;;5089103;28;20534;-71